Time;durP1;ratioP1;P1;durP2;ratioP2;P2;SDS_P1;SDS_P2;PMS_P1;PMS_P2;Temp;Humidity;BMP_temperature;BMP_pressure;BME280_temperature;BME280_humidity;BME280_pressure;Samples;Min_cycle;Max_cycle;Signal;HPM_P1;HPM_P2
2023/02/27 00:00:14;;;;;;;3.10;2.90;;;;;;;-3.46;100.00;97432.50;5046847;28;20372;-68
2023/02/27 00:02:45;;;;;;;2.83;2.73;;;;;;;-3.48;100.00;97435.19;5014117;28;20396;-69
2023/02/27 00:05:12;;;;;;;2.70;2.50;;;;;;;-3.55;100.00;97424.38;5050954;28;20322;-69
2023/02/27 00:07:40;;;;;;;3.10;2.90;;;;;;;-3.54;100.00;97431.22;5021543;28;20342;-69
2023/02/27 00:10:10;;;;;;;2.87;2.67;;;;;;;-3.50;100.00;97432.69;5048753;28;20679;-68
2023/02/27 00:12:38;;;;;;;3.50;3.30;;;;;;;-3.51;100.00;97430.19;5045806;28;20502;-69
2023/02/27 00:15:07;;;;;;;3.00;2.73;;;;;;;-3.54;100.00;97425.19;5047006;28;20418;-68
2023/02/27 00:17:34;;;;;;;3.60;3.30;;;;;;;-3.48;100.00;97427.41;4997273;28;20507;-68
2023/02/27 00:20:04;;;;;;;3.73;3.00;;;;;;;-3.54;100.00;97423.44;5048022;28;20203;-69
2023/02/27 00:22:32;;;;;;;4.77;3.40;;;;;;;-3.59;100.00;97425.47;5022246;28;20211;-69
2023/02/27 00:25:00;;;;;;;3.10;2.90;;;;;;;-3.61;100.00;97424.69;5049454;28;21155;-69
2023/02/27 00:27:27;;;;;;;3.10;2.90;;;;;;;-3.67;100.00;97425.91;5046659;28;20625;-68
2023/02/27 00:29:55;;;;;;;2.97;2.70;;;;;;;-3.65;100.00;97431.81;5046228;28;20516;-68
2023/02/27 00:32:22;;;;;;;3.20;3.00;;;;;;;-3.62;100.00;97428.22;5015096;28;20209;-68
2023/02/27 00:34:50;;;;;;;7.07;3.20;;;;;;;-3.66;100.00;97440.53;5036335;28;20226;-70
2023/02/27 00:37:19;;;;;;;3.20;3.00;;;;;;;-3.76;100.00;97425.59;5046496;28;20199;-68
2023/02/27 00:39:47;;;;;;;2.90;2.70;;;;;;;-3.68;100.00;97436.34;5027135;28;21136;-70
2023/02/27 00:42:14;;;;;;;2.50;2.40;;;;;;;-3.70;100.00;97436.44;5048564;28;20195;-68
2023/02/27 00:44:42;;;;;;;3.10;2.90;;;;;;;-3.68;100.00;97439.78;5047104;28;20316;-69
2023/02/27 00:47:10;;;;;;;2.73;2.63;;;;;;;-3.69;100.00;97432.94;5044136;28;20404;-68
2023/02/27 00:49:37;;;;;;;3.40;3.10;;;;;;;-3.64;100.00;97438.69;5000362;28;20858;-69
2023/02/27 00:52:05;;;;;;;2.70;2.60;;;;;;;-3.62;100.00;97438.56;5048221;28;20205;-68
2023/02/27 00:54:34;;;;;;;2.87;2.67;;;;;;;-3.62;100.00;97433.38;5023448;28;20226;-69
2023/02/27 00:57:01;;;;;;;2.90;2.70;;;;;;;-3.68;100.00;97436.34;5049972;28;20234;-69
2023/02/27 00:59:29;;;;;;;6.13;2.90;;;;;;;-3.65;100.00;97439.59;5044793;28;20213;-68
2023/02/27 01:01:57;;;;;;;3.30;3.10;;;;;;;-3.71;100.00;97439.09;5044091;28;20480;-68
2023/02/27 01:04:24;;;;;;;3.23;3.03;;;;;;;-3.70;100.00;97441.63;5001543;28;20242;-68
2023/02/27 01:06:52;;;;;;;2.90;2.70;;;;;;;-3.75;100.00;97437.63;5045607;28;20729;-69
2023/02/27 01:09:19;;;;;;;3.10;2.90;;;;;;;-3.71;100.00;97446.88;5021659;28;20223;-68
2023/02/27 01:11:48;;;;;;;3.53;3.27;;;;;;;-3.68;100.00;97441.53;5045499;28;20366;-69
2023/02/27 01:14:16;;;;;;;2.77;2.60;;;;;;;-3.65;100.00;97436.16;5048078;28;20234;-68
2023/02/27 01:16:43;;;;;;;3.00;2.80;;;;;;;-3.69;100.00;97439.84;5043727;28;20575;-70
2023/02/27 01:19:11;;;;;;;3.13;2.93;;;;;;;-3.62;100.00;97451.53;5002093;28;20211;-69
2023/02/27 01:21:40;;;;;;;3.50;3.20;;;;;;;-3.57;100.00;97446.09;5042551;28;20213;-69
2023/02/27 01:24:08;;;;;;;3.70;2.93;;;;;;;-3.57;100.00;97435.72;5046867;28;20223;-69
2023/02/27 01:26:36;;;;;;;3.27;3.00;;;;;;;-3.58;100.00;97450.44;5024010;28;20733;-68
2023/02/27 01:29:05;;;;;;;4.47;3.33;;;;;;;-3.59;100.00;97445.34;5046384;28;20202;-69
2023/02/27 01:31:33;;;;;;;3.40;3.20;;;;;;;-3.58;100.00;97447.00;5044320;28;20288;-68
2023/02/27 01:34:00;;;;;;;3.17;2.97;;;;;;;-3.61;100.00;97458.38;5047630;28;20572;-70
2023/02/27 01:36:28;;;;;;;3.77;3.50;;;;;;;-3.66;100.00;97450.88;4993047;28;21116;-68
2023/02/27 01:38:55;;;;;;;3.43;3.23;;;;;;;-3.73;100.00;97446.13;5048949;28;20290;-68
2023/02/27 01:41:23;;;;;;;3.50;3.20;;;;;;;-3.83;100.00;97443.22;5028202;28;20214;-68
2023/02/27 01:43:56;;;;;;;3.67;3.37;;;;;;;-3.98;100.00;97442.34;5048667;28;20477;-69
2023/02/27 01:46:26;;;;;;;3.80;3.00;;;;;;;-3.96;100.00;97440.53;5042152;28;20560;-68
2023/02/27 01:48:58;;;;;;;3.30;3.10;;;;;;;-4.10;100.00;97439.53;5048254;28;20344;-69
2023/02/27 01:51:28;;;;;;;4.03;3.70;;;;;;;-4.14;100.00;97448.38;4986150;28;20268;-68
2023/02/27 01:53:56;;;;;;;3.90;3.60;;;;;;;-4.18;100.00;97451.22;5046840;28;20234;-67
2023/02/27 01:56:25;;;;;;;3.67;3.47;;;;;;;-4.28;100.00;97443.97;5032056;28;20829;-68
2023/02/27 01:58:55;;;;;;;3.80;3.50;;;;;;;-4.05;100.00;97456.56;5043561;28;20515;-69
2023/02/27 02:01:24;;;;;;;4.40;4.00;;;;;;;-4.01;100.00;97458.91;5043191;28;20204;-68
2023/02/27 02:03:56;;;;;;;4.30;3.90;;;;;;;-3.87;100.00;97459.88;5045179;28;20491;-69
2023/02/27 02:06:24;;;;;;;4.43;4.03;;;;;;;-3.84;100.00;97462.28;4997539;28;20226;-68
2023/02/27 02:08:53;;;;;;;5.17;4.00;;;;;;;-3.80;100.00;97463.75;5046097;28;20678;-70
2023/02/27 02:11:22;;;;;;;4.27;4.00;;;;;;;-3.87;100.00;97458.13;5043600;28;20577;-68
2023/02/27 02:13:51;;;;;;;4.77;4.27;;;;;;;-3.80;100.00;97469.78;5024468;28;20570;-69
2023/02/27 02:16:29;;;;;;;4.20;4.00;;;;;;;-3.82;100.00;97474.22;5040876;28;20270;-68
2023/02/27 02:19:02;;;;;;;3.77;3.53;;;;;;;-3.78;100.00;97473.13;5047765;28;20900;-69
2023/02/27 02:21:57;;;;;;;4.07;3.77;;;;;;;-3.82;100.00;97474.22;4998619;28;20211;-68
2023/02/27 02:25:03;;;;;;;4.47;4.07;;;;;;;-3.83;100.00;97476.88;5042923;28;20233;-69
2023/02/27 02:27:43;;;;;;;4.97;4.57;;;;;;;-3.83;100.00;97477.75;5018522;28;20234;-69
2023/02/27 02:30:49;;;;;;;4.87;4.47;;;;;;;-3.72;100.00;97473.69;5048446;28;20205;-69
2023/02/27 02:33:46;;;;;;;4.07;3.77;;;;;;;-3.71;100.00;97477.97;5011460;28;20270;-68
2023/02/27 02:36:52;;;;;;;3.77;3.43;;;;;;;-3.69;100.00;97482.13;5040147;28;20206;-68
2023/02/27 02:39:42;;;;;;;4.27;3.97;;;;;;;-3.71;100.00;97483.13;5042857;28;20381;-68
2023/02/27 02:42:16;;;;;;;4.60;4.30;;;;;;;-3.68;100.00;97485.53;5052329;28;20203;-68
2023/02/27 02:44:50;;;;;;;5.53;4.87;;;;;;;-3.71;100.00;97486.56;5027367;28;20245;-69
2023/02/27 02:47:23;;;;;;;3.80;3.60;;;;;;;-3.74;100.00;97484.16;5044657;28;20290;-67
2023/02/27 02:49:56;;;;;;;5.17;4.07;;;;;;;-3.69;100.00;97489.06;5047872;28;20199;-69
2023/02/27 02:52:29;;;;;;;4.40;4.00;;;;;;;-3.65;100.00;97480.19;5012809;28;20461;-68
2023/02/27 02:55:02;;;;;;;4.17;3.87;;;;;;;-3.54;100.00;97488.19;5050769;28;20311;-68
2023/02/27 02:57:33;;;;;;;3.87;3.67;;;;;;;-3.53;100.00;97492.47;5046723;28;20210;-68
2023/02/27 03:00:04;;;;;;;4.83;4.53;;;;;;;-3.51;100.00;97487.19;5030747;28;20207;-69
2023/02/27 03:02:36;;;;;;;3.90;3.63;;;;;;;-3.51;100.00;97488.03;5046672;28;21811;-68
2023/02/27 03:05:07;;;;;;;4.47;4.07;;;;;;;-3.54;100.00;97490.78;5051557;28;20219;-68
2023/02/27 03:07:38;;;;;;;4.30;4.00;;;;;;;-3.55;100.00;97496.91;4990796;28;22001;-69
2023/02/27 03:10:11;;;;;;;4.70;4.30;;;;;;;-3.54;100.00;97495.97;5050317;28;20528;-68
2023/02/27 03:12:40;;;;;;;3.67;3.47;;;;;;;-3.52;100.00;97496.72;5043028;28;20449;-68
2023/02/27 03:15:13;;;;;;;4.27;3.87;;;;;;;-3.55;100.00;97502.06;5031808;28;20231;-68
2023/02/27 03:17:45;;;;;;;4.67;4.27;;;;;;;-3.63;100.00;97501.66;5046050;28;20336;-67
2023/02/27 03:20:17;;;;;;;4.20;3.90;;;;;;;-3.72;100.00;97497.84;5048037;28;20694;-69
2023/02/27 03:22:46;;;;;;;4.10;3.80;;;;;;;-3.80;100.00;97497.44;5041822;28;20199;-70
2023/02/27 03:25:17;;;;;;;4.20;3.90;;;;;;;-3.90;100.00;97493.69;4997682;28;20227;-68
2023/02/27 03:27:46;;;;;;;4.20;3.90;;;;;;;-3.80;100.00;97489.66;5048227;28;20336;-68
2023/02/27 03:30:18;;;;;;;3.40;3.20;;;;;;;-3.78;100.00;97498.22;5030095;28;20199;-67
2023/02/27 03:32:49;;;;;;;4.03;3.73;;;;;;;-3.78;100.00;97496.44;5046722;28;20234;-69
2023/02/27 03:35:17;;;;;;;4.30;3.90;;;;;;;-3.71;100.00;97502.13;5047556;28;20741;-68
2023/02/27 03:37:52;;;;;;;4.37;4.07;;;;;;;-3.67;100.00;97503.59;5042654;28;20926;-69
2023/02/27 03:40:28;;;;;;;4.00;3.70;;;;;;;-3.65;100.00;97493.13;4995724;28;20211;-68
2023/02/27 03:43:00;;;;;;;4.40;4.00;;;;;;;-3.70;100.00;97505.53;5048576;28;20464;-70
2023/02/27 03:45:33;;;;;;;4.13;3.93;;;;;;;-3.71;100.00;97502.13;5024935;28;20225;-68
2023/02/27 03:48:01;;;;;;;4.40;4.00;;;;;;;-3.71;100.00;97509.03;5043330;28;20219;-69
2023/02/27 03:50:29;;;;;;;5.30;4.53;;;;;;;-3.70;100.00;97511.56;5047337;28;20246;-68
2023/02/27 03:52:57;;;;;;;4.03;3.73;;;;;;;-3.70;100.00;97513.28;5042967;28;22352;-71
2023/02/27 03:55:29;;;;;;;4.13;3.93;;;;;;;-3.73;100.00;97511.72;4995920;28;20224;-69
2023/02/27 03:57:56;;;;;;;5.67;4.13;;;;;;;-3.61;100.00;97514.53;5044845;28;20503;-69
2023/02/27 04:00:25;;;;;;;4.10;3.80;;;;;;;-3.56;100.00;97512.50;5043226;28;20241;-67
2023/02/27 04:02:54;;;;;;;4.23;4.03;;;;;;;-3.59;100.00;97520.47;5020987;28;20231;-70
2023/02/27 04:05:23;;;;;;;4.00;3.70;;;;;;;-3.62;100.00;97508.50;5046154;28;20293;-69
2023/02/27 04:08:00;;;;;;;6.13;4.50;;;;;;;-3.63;100.00;97514.59;5040997;28;20225;-70
2023/02/27 04:10:44;;;;;;;4.40;4.10;;;;;;;-3.61;100.00;97507.59;4997744;28;20225;-69
2023/02/27 04:13:32;;;;;;;4.50;4.10;;;;;;;-3.59;100.00;97508.34;5046398;28;20811;-72
2023/02/27 04:16:20;;;;;;;3.80;3.30;;;;;;;-3.63;100.00;97505.09;5041451;28;20207;-69
2023/02/27 04:18:55;;;;;;;5.93;5.30;;;;;;;-3.53;100.00;97508.00;5026032;28;20292;-71
2023/02/27 04:21:28;;;;;;;3.83;3.63;;;;;;;-3.56;100.00;97515.09;5040098;28;20293;-69
2023/02/27 04:23:59;;;;;;;4.00;3.70;;;;;;;-3.54;100.00;97510.66;5047277;28;20295;-69
2023/02/27 04:26:30;;;;;;;4.17;3.87;;;;;;;-3.56;100.00;97515.94;4996825;28;20242;-68
2023/02/27 04:29:02;;;;;;;4.07;3.77;;;;;;;-3.51;100.00;97519.09;5046271;28;20198;-69
2023/02/27 04:31:32;;;;;;;4.20;3.80;;;;;;;-3.51;100.00;97521.69;5041644;28;20207;-67
2023/02/27 04:34:05;;;;;;;4.83;3.90;;;;;;;-3.52;100.00;97517.44;5027784;28;20234;-68
2023/02/27 04:36:35;;;;;;;3.97;3.70;;;;;;;-3.54;100.00;97524.47;5044092;28;21093;-69
2023/02/27 04:39:05;;;;;;;4.77;4.47;;;;;;;-3.58;100.00;97514.34;5047133;28;20206;-69
2023/02/27 04:41:37;;;;;;;4.43;3.80;;;;;;;-3.59;100.00;97515.28;4996513;28;20454;-68
2023/02/27 04:44:07;;;;;;;4.77;3.43;;;;;;;-3.71;100.00;97516.81;5041283;28;20237;-69
2023/02/27 04:46:37;;;;;;;3.83;3.57;;;;;;;-3.86;100.00;97515.91;5043337;28;20206;-70
2023/02/27 04:49:09;;;;;;;3.40;3.20;;;;;;;-3.95;100.00;97525.03;5026056;28;20303;-72
2023/02/27 04:51:42;;;;;;;5.57;3.80;;;;;;;-3.96;100.00;97528.53;5038162;28;20707;-70
2023/02/27 04:54:12;;;;;;;3.83;3.63;;;;;;;-4.01;100.00;97533.13;5050510;28;20223;-71
2023/02/27 04:56:44;;;;;;;4.33;3.60;;;;;;;-4.04;100.00;97533.28;4998355;28;21310;-70
2023/02/27 04:59:15;;;;;;;7.27;4.17;;;;;;;-4.10;100.00;97531.88;5047208;28;20214;-69
2023/02/27 05:01:45;;;;;;;4.47;4.07;;;;;;;-4.02;100.00;97536.63;5045382;28;21167;-70
2023/02/27 05:04:16;;;;;;;4.17;3.63;;;;;;;-4.08;100.00;97538.63;5049771;28;20254;-69
2023/02/27 05:06:45;;;;;;;4.63;4.13;;;;;;;-4.07;100.00;97545.47;5031578;28;20411;-69
2023/02/27 05:09:17;;;;;;;4.27;3.97;;;;;;;-4.09;100.00;97539.56;5047373;28;20637;-68
2023/02/27 05:11:49;;;;;;;4.13;3.80;;;;;;;-4.12;100.00;97547.47;5000491;28;20831;-70
2023/02/27 05:14:21;;;;;;;4.33;4.03;;;;;;;-4.05;100.00;97537.63;5042596;28;20329;-68
2023/02/27 05:16:53;;;;;;;3.93;3.60;;;;;;;-4.09;100.00;97539.56;5046065;28;20203;-68
2023/02/27 05:19:20;;;;;;;8.50;4.80;;;;;;;-4.13;100.00;97548.41;5046267;28;20209;-70
2023/02/27 05:21:53;;;;;;;4.23;3.93;;;;;;;-4.14;100.00;97545.91;5024794;28;20452;-70
2023/02/27 05:24:30;;;;;;;4.03;3.73;;;;;;;-4.17;100.00;97541.72;5043068;28;20224;-68
2023/02/27 05:27:13;;;;;;;4.70;4.30;;;;;;;-4.29;100.00;97535.44;5012259;28;20452;-71
2023/02/27 05:29:45;;;;;;;4.30;4.03;;;;;;;-4.40;100.00;97550.72;5048660;28;20442;-69
2023/02/27 05:32:19;;;;;;;5.33;4.03;;;;;;;-4.52;100.00;97536.69;5049442;28;20630;-69
2023/02/27 05:34:51;;;;;;;4.37;4.07;;;;;;;-4.47;100.00;97552.78;5047612;28;20206;-71
2023/02/27 05:37:23;;;;;;;5.03;4.53;;;;;;;-4.60;100.00;97536.25;5026405;28;20213;-68
2023/02/27 05:39:52;;;;;;;4.10;3.80;;;;;;;-4.54;100.00;97549.72;5048603;28;20209;-70
2023/02/27 05:42:25;;;;;;;4.83;4.53;;;;;;;-4.52;100.00;97555.63;5005498;28;20202;-69
2023/02/27 05:44:56;;;;;;;4.00;3.73;;;;;;;-4.53;100.00;97547.94;5049961;28;20218;-70
2023/02/27 05:47:26;;;;;;;4.90;4.53;;;;;;;-4.50;100.00;97545.19;5040913;28;20202;-68
2023/02/27 05:49:55;;;;;;;4.60;4.20;;;;;;;-4.44;100.00;97557.78;5046227;28;20575;-70
2023/02/27 05:52:25;;;;;;;5.50;4.63;;;;;;;-4.58;100.00;97555.94;5026335;28;20206;-68
2023/02/27 05:54:56;;;;;;;5.00;4.13;;;;;;;-4.56;100.00;97561.03;5050388;28;20718;-70
2023/02/27 05:57:29;;;;;;;4.40;4.10;;;;;;;-4.57;100.00;97561.94;5022426;28;20449;-68
2023/02/27 06:00:01;;;;;;;4.77;4.37;;;;;;;-4.56;100.00;97561.84;5044973;28;20211;-70
2023/02/27 06:02:29;;;;;;;6.30;4.57;;;;;;;-4.60;100.00;97562.94;5044989;28;21344;-69
2023/02/27 06:04:57;;;;;;;4.27;3.97;;;;;;;-4.63;100.00;97568.25;5047218;28;20479;-71
2023/02/27 06:07:24;;;;;;;4.40;4.00;;;;;;;-4.68;100.00;97571.09;5027466;28;20206;-70
2023/02/27 06:09:52;;;;;;;4.93;4.50;;;;;;;-4.79;100.00;97573.38;5052570;28;20524;-69
2023/02/27 06:12:19;;;;;;;4.20;3.90;;;;;;;-4.77;100.00;97571.56;5051129;28;20742;-68
2023/02/27 06:14:50;;;;;;;5.60;5.20;;;;;;;-4.75;100.00;97574.91;5013317;28;20227;-70
2023/02/27 06:17:18;;;;;;;6.03;5.53;;;;;;;-4.81;100.00;97570.91;5048521;28;20586;-69
2023/02/27 06:19:45;;;;;;;7.13;5.13;;;;;;;-4.81;100.00;97572.63;5052209;28;20187;-69
2023/02/27 06:22:13;;;;;;;5.60;5.10;;;;;;;-4.85;100.00;97571.97;5041806;28;21110;-69
2023/02/27 06:24:41;;;;;;;5.77;5.27;;;;;;;-4.90;100.00;97581.72;5037639;28;20234;-70
2023/02/27 06:27:08;;;;;;;4.90;4.43;;;;;;;-4.83;100.00;97575.31;5047448;28;20694;-70
2023/02/27 06:29:36;;;;;;;4.53;4.23;;;;;;;-4.87;100.00;97583.28;5007162;28;20227;-69
2023/02/27 06:32:05;;;;;;;5.37;4.53;;;;;;;-4.84;100.00;97580.53;5051416;28;21527;-71
2023/02/27 06:34:32;;;;;;;4.50;4.20;;;;;;;-4.90;100.00;97584.28;5050740;28;20832;-69
2023/02/27 06:37:00;;;;;;;4.70;4.07;;;;;;;-4.86;100.00;97582.38;5048581;28;20203;-70
2023/02/27 06:39:31;;;;;;;5.77;4.30;;;;;;;-4.87;100.00;97588.47;5031063;28;20206;-70
2023/02/27 06:41:59;;;;;;;4.30;4.00;;;;;;;-4.87;100.00;97584.13;5053505;28;20803;-70
2023/02/27 06:44:28;;;;;;;4.73;4.23;;;;;;;-4.81;100.00;97581.25;5004037;28;20227;-70
2023/02/27 06:46:56;;;;;;;5.07;4.67;;;;;;;-4.73;100.00;97583.44;5045013;28;20495;-71
2023/02/27 06:49:25;;;;;;;5.07;4.63;;;;;;;-4.71;100.00;97584.19;5047167;28;21003;-69
2023/02/27 06:51:52;;;;;;;6.33;3.90;;;;;;;-4.72;100.00;97585.13;5051953;28;20306;-71
2023/02/27 06:54:20;;;;;;;4.37;4.10;;;;;;;-4.76;100.00;97578.41;5025766;28;20237;-70
2023/02/27 06:56:48;;;;;;;4.93;4.30;;;;;;;-4.73;100.00;97578.28;5051098;28;20191;-69
2023/02/27 06:59:15;;;;;;;4.60;4.13;;;;;;;-4.66;100.00;97587.38;5049901;28;20206;-69
2023/02/27 07:01:43;;;;;;;4.80;4.40;;;;;;;-4.61;100.00;97586.31;5007059;28;20438;-71
2023/02/27 07:04:13;;;;;;;4.77;4.37;;;;;;;-4.60;100.00;97591.38;5043854;28;20231;-70
2023/02/27 07:06:42;;;;;;;4.60;4.27;;;;;;;-4.54;100.00;97583.34;5049293;28;20207;-70
2023/02/27 07:09:29;;;;;;;4.87;3.97;;;;;;;-4.53;100.00;97582.41;5026913;28;20300;-71
2023/02/27 07:11:57;;;;;;;4.20;3.90;;;;;;;-4.50;100.00;97589.16;5049433;28;20367;-70
2023/02/27 07:14:25;;;;;;;4.50;4.20;;;;;;;-4.41;100.00;97593.84;5049210;28;20477;-69
2023/02/27 07:16:53;;;;;;;5.13;4.73;;;;;;;-4.33;100.00;97600.41;5001731;28;20457;-71
2023/02/27 07:19:21;;;;;;;5.57;5.13;;;;;;;-4.28;100.00;97593.22;5044603;28;20433;-69
2023/02/27 07:21:50;;;;;;;5.93;5.47;;;;;;;-4.27;100.00;97592.31;5048327;28;20191;-68
2023/02/27 07:24:18;;;;;;;5.20;4.77;;;;;;;-4.16;100.00;97595.16;5027175;28;20238;-69
2023/02/27 07:26:45;;;;;;;4.27;3.90;;;;;;;-4.10;100.00;97589.66;5052376;28;20209;-70
2023/02/27 07:29:14;;;;;;;5.03;4.63;;;;;;;-4.04;100.00;97585.91;5049743;28;20867;-69
2023/02/27 07:31:42;;;;;;;4.80;4.47;;;;;;;-3.97;100.00;97583.84;5002094;28;20344;-70
2023/02/27 07:34:10;;;;;;;4.90;3.97;;;;;;;-3.88;100.00;97596.28;5050925;28;20219;-68
2023/02/27 07:36:38;;;;;;;4.47;4.07;;;;;;;-3.87;100.00;97591.91;5047457;28;20684;-68
2023/02/27 07:39:09;;;;;;;4.20;4.00;;;;;;;-3.73;100.00;97594.59;5050862;28;20195;-70
2023/02/27 07:41:37;;;;;;;4.90;4.40;;;;;;;-3.70;100.00;97602.19;5033110;28;20410;-70
2023/02/27 07:44:05;;;;;;;4.27;3.93;;;;;;;-3.63;100.00;97605.25;5049810;28;20716;-69
2023/02/27 07:46:33;;;;;;;4.57;4.27;;;;;;;-3.59;100.00;97598.16;5003219;28;20758;-70
2023/02/27 07:49:00;;;;;;;4.10;3.87;;;;;;;-3.50;100.00;97595.91;5046157;28;20910;-69
2023/02/27 07:51:28;;;;;;;4.60;4.20;;;;;;;-3.38;100.00;97593.53;5047653;28;20603;-69
2023/02/27 07:53:57;;;;;;;4.87;4.50;;;;;;;-3.23;100.00;97595.25;5053700;28;20222;-69
2023/02/27 07:56:26;;;;;;;5.20;4.70;;;;;;;-3.18;100.00;97589.00;5033652;28;20515;-68
2023/02/27 07:58:54;;;;;;;4.33;3.97;;;;;;;-3.06;99.22;97589.09;5050692;28;20392;-69
2023/02/27 08:01:23;;;;;;;4.73;4.23;;;;;;;-3.00;98.94;97590.53;5013015;28;20471;-68
2023/02/27 08:03:50;;;;;;;4.93;4.47;;;;;;;-2.86;98.18;97589.72;5044941;28;20465;-68
2023/02/27 08:06:18;;;;;;;4.70;3.87;;;;;;;-2.78;97.01;97582.31;5043488;28;20836;-68
2023/02/27 08:08:46;;;;;;;4.47;4.07;;;;;;;-2.67;96.05;97584.28;5049231;28;20266;-70
2023/02/27 08:11:14;;;;;;;4.97;4.30;;;;;;;-2.68;94.62;97587.81;5044242;28;20207;-68
2023/02/27 08:13:44;;;;;;;4.80;4.40;;;;;;;-2.48;94.04;97585.75;5016407;28;20556;-70
2023/02/27 08:16:30;;;;;;;4.90;4.40;;;;;;;-2.69;92.38;97588.72;5049831;28;20938;-69
2023/02/27 08:18:58;;;;;;;5.57;3.70;;;;;;;-2.73;92.15;97595.03;4984315;28;20202;-68
2023/02/27 08:21:28;;;;;;;4.50;4.07;;;;;;;-2.71;91.27;97592.31;5043558;28;20203;-70
2023/02/27 08:23:56;;;;;;;4.30;4.00;;;;;;;-2.88;91.43;97601.94;5047157;28;20746;-68
2023/02/27 08:26:23;;;;;;;6.97;6.30;;;;;;;-2.86;91.64;97607.03;5048898;28;20194;-70
2023/02/27 08:28:52;;;;;;;5.17;4.77;;;;;;;-2.65;91.42;97592.00;5026071;28;20296;-68
2023/02/27 08:31:20;;;;;;;4.23;3.93;;;;;;;-2.43;90.48;97603.66;5038947;28;20234;-70
2023/02/27 08:33:48;;;;;;;5.67;3.57;;;;;;;-2.16;88.57;97601.16;5002631;28;20254;-70
2023/02/27 08:36:24;;;;;;;4.67;4.37;;;;;;;-1.88;87.54;97615.03;5044552;28;20289;-71
2023/02/27 08:38:53;;;;;;;5.00;3.93;;;;;;;-1.80;85.89;97602.41;5043481;28;20882;-69
2023/02/27 08:41:21;;;;;;;3.77;3.43;;;;;;;-1.64;84.62;97593.66;5049625;28;20315;-70
2023/02/27 08:43:49;;;;;;;4.10;3.80;;;;;;;-1.04;84.68;97607.16;5025033;28;20231;-69
2023/02/27 08:46:17;;;;;;;4.43;4.03;;;;;;;-0.18;82.41;97602.34;5041917;28;20252;-67
2023/02/27 08:48:45;;;;;;;4.33;4.03;;;;;;;-0.18;79.64;97608.38;5048181;28;20228;-69
2023/02/27 08:51:13;;;;;;;4.20;3.50;;;;;;;-0.09;78.38;97596.50;5000978;28;20745;-69
2023/02/27 08:53:40;;;;;;;3.97;3.47;;;;;;;0.00;76.84;97605.44;5045442;28;20245;-70
2023/02/27 08:56:08;;;;;;;3.87;3.57;;;;;;;0.19;76.47;97606.75;5046374;28;20203;-67
2023/02/27 08:58:35;;;;;;;5.40;3.53;;;;;;;0.14;76.69;97604.47;5029317;28;20222;-69
2023/02/27 09:01:03;;;;;;;4.13;3.80;;;;;;;-0.23;76.02;97605.25;5045808;28;20202;-68
2023/02/27 09:03:32;;;;;;;7.00;4.83;;;;;;;-0.57;76.83;97623.16;5049994;28;20222;-70
2023/02/27 09:05:59;;;;;;;3.67;3.33;;;;;;;-1.06;78.97;97625.50;5003016;28;20689;-68
2023/02/27 09:08:27;;;;;;;7.77;4.03;;;;;;;-0.86;79.52;97625.13;5046902;28;20219;-69
2023/02/27 09:10:57;;;;;;;3.83;3.50;;;;;;;-1.07;79.03;97618.63;5049616;28;20222;-68
2023/02/27 09:13:25;;;;;;;4.17;3.83;;;;;;;-1.58;80.74;97626.22;5027121;28;20562;-69
2023/02/27 09:15:53;;;;;;;3.87;3.57;;;;;;;-1.47;80.60;97613.38;5041408;28;20195;-68
2023/02/27 09:18:21;;;;;;;4.30;4.00;;;;;;;-1.25;80.62;97632.78;5045883;28;20226;-69
2023/02/27 09:20:50;;;;;;;4.93;4.20;;;;;;;-1.67;79.59;97633.66;5001180;28;20212;-67
2023/02/27 09:23:19;;;;;;;4.90;4.50;;;;;;;-1.53;79.53;97630.19;5044543;28;20206;-68
2023/02/27 09:25:47;;;;;;;4.37;4.00;;;;;;;-1.50;79.84;97630.00;5050877;28;20477;-69
2023/02/27 09:28:14;;;;;;;4.20;3.90;;;;;;;-1.70;80.17;97625.25;5047207;28;20462;-68
2023/02/27 09:30:42;;;;;;;3.83;3.53;;;;;;;-1.54;80.67;97628.53;5023201;28;20343;-68
2023/02/27 09:33:10;;;;;;;3.97;3.67;;;;;;;-1.18;78.96;97631.47;5046267;28;20576;-67
2023/02/27 09:35:37;;;;;;;3.77;3.47;;;;;;;-0.51;78.01;97633.16;5003326;28;20240;-68
2023/02/27 09:38:06;;;;;;;2.77;2.67;;;;;;;-0.42;75.63;97633.47;5043214;28;20298;-67
2023/02/27 09:40:40;;;;;;;4.03;3.67;;;;;;;-0.04;74.87;97630.03;5050095;28;20206;-68
2023/02/27 09:43:10;;;;;;;3.73;3.53;;;;;;;-0.12;73.82;97643.59;5050254;28;20718;-68
2023/02/27 09:45:38;;;;;;;3.90;3.57;;;;;;;-0.40;74.17;97645.47;5028076;28;20219;-69
2023/02/27 09:48:12;;;;;;;3.50;3.20;;;;;;;-0.37;74.38;97640.03;5048097;28;20211;-68
2023/02/27 09:50:41;;;;;;;3.77;3.47;;;;;;;0.08;73.68;97657.84;5008199;28;20227;-69
2023/02/27 09:53:14;;;;;;;4.30;3.90;;;;;;;0.02;71.63;97650.47;5047634;28;20203;-68
2023/02/27 09:55:42;;;;;;;5.70;5.20;;;;;;;-0.33;72.44;97656.31;5050555;28;20215;-68
2023/02/27 09:58:25;;;;;;;3.43;3.13;;;;;;;-0.58;71.81;97657.94;5048881;28;20234;-70
2023/02/27 10:00:57;;;;;;;3.20;3.00;;;;;;;-0.48;73.79;97660.78;5014793;28;20202;-68
2023/02/27 10:03:36;;;;;;;3.53;3.23;;;;;;;-0.12;74.05;97655.78;5052370;28;20199;-69
2023/02/27 10:06:23;;;;;;;3.73;3.33;;;;;;;-0.27;72.81;97665.47;4972060;28;20323;-70
2023/02/27 10:08:59;;;;;;;3.80;3.53;;;;;;;-0.24;72.36;97665.25;5047212;28;20229;-69
2023/02/27 10:11:32;;;;;;;5.53;3.40;;;;;;;-0.51;71.52;97666.19;5015367;28;20227;-70
2023/02/27 10:14:07;;;;;;;3.65;3.35;;;;;;;-0.70;71.21;97675.19;5052667;28;20438;-70
2023/02/27 10:16:34;;;;;;;6.33;5.23;;;;;;;-0.49;71.15;97670.34;5028523;28;20217;-73
2023/02/27 10:19:06;;;;;;;4.05;3.65;;;;;;;-0.30;70.34;97663.91;5047887;28;20840;-70
2023/02/27 10:21:37;;;;;;;5.80;4.70;;;;;;;-0.64;69.14;97679.19;5009681;28;21018;-70
2023/02/27 10:24:12;;;;;;;4.23;3.27;;;;;;;-0.73;69.82;97668.44;5046758;28;20252;-67
2023/02/27 10:26:41;;;;;;;4.40;4.00;;;;;;;-0.59;69.70;97679.72;5053141;28;20717;-70
2023/02/27 10:29:16;;;;;;;7.30;4.53;;;;;;;-0.49;69.79;97672.94;5050088;28;20213;-67
2023/02/27 10:31:46;;;;;;;5.97;3.67;;;;;;;-0.29;70.02;97676.00;5052401;28;20231;-70
2023/02/27 10:34:15;;;;;;;2.83;2.73;;;;;;;-0.53;68.84;97686.28;5026754;28;20234;-67
2023/02/27 10:36:43;;;;;;;2.70;2.50;;;;;;;-0.96;69.33;97682.09;5000735;28;20206;-70
2023/02/27 10:39:14;;;;;;;3.23;3.00;;;;;;;-0.80;69.91;97676.75;5048466;28;21016;-67
2023/02/27 10:41:42;;;;;;;2.23;2.13;;;;;;;-0.90;69.97;97681.72;5054216;28;20242;-71
2023/02/27 10:44:11;;;;;;;4.90;2.50;;;;;;;-0.74;69.95;97685.00;5050726;28;20219;-70
2023/02/27 10:46:40;;;;;;;2.90;2.60;;;;;;;-0.76;69.81;97694.66;5051975;28;20207;-72
2023/02/27 10:49:14;;;;;;;2.43;2.20;;;;;;;-0.65;70.16;97688.75;5027471;28;20202;-69
2023/02/27 10:51:45;;;;;;;2.60;2.40;;;;;;;-0.70;69.43;97690.81;5030739;28;20578;-71
2023/02/27 10:54:19;;;;;;;4.30;2.83;;;;;;;-0.73;70.09;97691.88;5006339;28;20249;-68
2023/02/27 10:56:49;;;;;;;2.77;2.50;;;;;;;-0.61;70.00;97694.59;5051247;28;20197;-71
2023/02/27 10:59:19;;;;;;;2.40;2.30;;;;;;;-0.67;68.86;97690.63;5046427;28;20205;-70
2023/02/27 11:01:49;;;;;;;2.60;2.40;;;;;;;-0.83;69.26;97685.56;5051499;28;20199;-70
2023/02/27 11:04:25;;;;;;;2.63;2.23;;;;;;;-0.79;68.97;97681.84;5027286;28;21037;-69
2023/02/27 11:06:53;;;;;;;3.13;2.43;;;;;;;-0.71;68.01;97678.75;5032262;28;20251;-71
2023/02/27 11:09:25;;;;;;;2.30;2.10;;;;;;;-0.63;67.39;97681.66;5018200;28;20211;-71
2023/02/27 11:11:53;;;;;;;2.10;1.90;;;;;;;-0.59;66.28;97688.34;5049765;28;20233;-70
2023/02/27 11:14:27;;;;;;;2.30;2.20;;;;;;;-0.67;66.90;97674.19;5049940;28;20218;-70
2023/02/27 11:16:57;;;;;;;1.83;1.73;;;;;;;-0.71;66.46;97683.13;5048182;28;20205;-70
2023/02/27 11:19:30;;;;;;;2.37;2.20;;;;;;;-0.79;66.37;97679.22;5026982;28;20207;-71
2023/02/27 11:22:03;;;;;;;2.03;1.93;;;;;;;-0.64;65.71;97673.97;5031182;28;20671;-70
2023/02/27 11:24:33;;;;;;;2.03;1.93;;;;;;;-0.61;65.24;97676.38;5023826;28;20292;-71
2023/02/27 11:27:04;;;;;;;2.17;1.97;;;;;;;-0.49;65.14;97683.34;5023835;28;20237;-71
2023/02/27 11:29:32;;;;;;;1.90;1.80;;;;;;;-0.58;65.51;97670.97;5050731;28;20206;-68
2023/02/27 11:32:03;;;;;;;3.77;2.00;;;;;;;-0.49;66.27;97677.34;5048787;28;20219;-70
2023/02/27 11:34:33;;;;;;;3.57;1.83;;;;;;;-0.64;65.87;97673.97;5038310;28;20526;-69
2023/02/27 11:37:02;;;;;;;1.90;1.80;;;;;;;-0.67;65.84;97664.59;5024085;28;20246;-70
2023/02/27 11:39:35;;;;;;;5.50;1.70;;;;;;;-0.56;65.83;97668.28;5003802;28;20213;-69
2023/02/27 11:42:14;;;;;;;2.43;2.30;;;;;;;-0.67;65.54;97675.00;5051411;28;20585;-68
2023/02/27 11:44:51;;;;;;;2.00;1.90;;;;;;;-0.70;66.74;97661.38;5046985;28;20280;-70